Time;durP1;ratioP1;P1;durP2;ratioP2;P2;SDS_P1;SDS_P2;PMS_P1;PMS_P2;Temp;Humidity;BMP_temperature;BMP_pressure;BME280_temperature;BME280_humidity;BME280_pressure;Samples;Min_cycle;Max_cycle;Signal;HPM_P1;HPM_P2
2023/03/24 00:02:05;;;;;;;3.47;2.00;;;;;;;;;;5019377;28;20035;-85
2023/03/24 00:04:32;;;;;;;1.27;1.17;;;;;;;;;;5016809;28;20693;-85
2023/03/24 00:07:00;;;;;;;2.55;1.67;;;;;;;;;;5034904;28;20983;-84
2023/03/24 00:09:27;;;;;;;3.70;2.08;;;;;;;;;;5024964;28;20119;-85
2023/03/24 00:11:52;;;;;;;4.75;1.55;;;;;;;;;;5020671;28;20036;-83
2023/03/24 00:14:18;;;;;;;2.05;1.85;;;;;;;;;;5033767;28;20045;-83
2023/03/24 00:16:44;;;;;;;2.78;1.33;;;;;;;;;;5028724;28;20037;-84
2023/03/24 00:19:12;;;;;;;3.42;2.15;;;;;;;;;;5028310;28;20051;-82
2023/03/24 00:21:38;;;;;;;3.03;1.30;;;;;;;;;;5014636;28;20056;-85
2023/03/24 00:24:04;;;;;;;2.75;1.50;;;;;;;;;;5028800;28;20625;-84
2023/03/24 00:26:30;;;;;;;5.30;1.85;;;;;;;;;;5027314;28;20116;-85
2023/03/24 00:28:56;;;;;;;3.72;1.70;;;;;;;;;;5024600;28;20068;-85
2023/03/24 00:31:23;;;;;;;3.25;1.75;;;;;;;;;;5025940;28;20067;-84
2023/03/24 00:33:52;;;;;;;2.17;1.80;;;;;;;;;;5012804;28;20033;-84
2023/03/24 00:36:19;;;;;;;3.55;1.70;;;;;;;;;;5009623;28;20025;-84
2023/03/24 00:38:47;;;;;;;2.88;2.03;;;;;;;;;;5013618;28;20032;-85
2023/03/24 00:41:13;;;;;;;2.83;1.77;;;;;;;;;;5022939;28;20052;-84
2023/03/24 00:43:39;;;;;;;1.95;1.70;;;;;;;;;;5009890;28;20038;-85
2023/03/24 00:46:09;;;;;;;2.38;1.88;;;;;;;;;;5014452;28;20043;-84
2023/03/24 00:48:37;;;;;;;3.30;1.75;;;;;;;;;;5011575;28;20643;-85
2023/03/24 00:51:06;;;;;;;1.70;1.60;;;;;;;;;;5030549;28;20025;-85
2023/03/24 00:53:33;;;;;;;2.55;1.88;;;;;;;;;;5031637;28;21313;-84
2023/03/24 00:55:59;;;;;;;2.92;2.00;;;;;;;;;;5037524;28;20109;-85
2023/03/24 00:58:25;;;;;;;3.50;1.70;;;;;;;;;;5021711;28;20043;-85
2023/03/24 01:00:54;;;;;;;1.60;1.50;;;;;;;;;;5021697;28;20020;-84
2023/03/24 01:03:25;;;;;;;1.70;1.60;;;;;;;;;;5023564;28;20029;-84
2023/03/24 01:05:53;;;;;;;2.72;1.60;;;;;;;;;;5037511;28;20025;-84
2023/03/24 01:08:19;;;;;;;2.67;1.40;;;;;;;;;;5041013;28;20048;-85
2023/03/24 01:10:49;;;;;;;1.52;1.17;;;;;;;;;;5023999;28;20029;-85
2023/03/24 01:13:27;;;;;;;1.70;1.60;;;;;;;;;;5041415;28;20029;-85
2023/03/24 01:15:53;;;;;;;1.10;1.05;;;;;;;;;;5039412;28;20516;-85
2023/03/24 01:18:19;;;;;;;1.80;1.65;;;;;;;;;;5025986;28;20133;-85
2023/03/24 01:20:47;;;;;;;2.95;1.45;;;;;;;;;;5028163;28;20021;-85
2023/03/24 01:23:15;;;;;;;1.58;1.42;;;;;;;;;;5040086;28;20028;-84
2023/03/24 01:25:46;;;;;;;2.38;1.52;;;;;;;;;;5025992;28;20079;-82
2023/03/24 01:28:13;;;;;;;1.63;1.38;;;;;;;;;;5023639;28;20029;-84
2023/03/24 01:33:06;;;;;;;1.98;1.63;;;;;;;;;;4996614;28;20068;-81
2023/03/24 01:35:32;;;;;;;2.60;1.50;;;;;;;;;;4977760;28;20476;-82
2023/03/24 01:37:58;;;;;;;2.20;1.50;;;;;;;;;;4996368;28;20160;-80
2023/03/24 01:40:29;;;;;;;2.10;1.85;;;;;;;;;;4971934;28;20057;-82
2023/03/24 01:42:55;;;;;;;2.20;1.42;;;;;;;;;;4975309;28;20068;-82
2023/03/24 01:45:39;;;;;;;4.90;1.67;;;;;;;;;;4977020;28;20128;-82
2023/03/24 01:48:24;;;;;;;2.13;1.83;;;;;;;;;;4987388;28;20088;-82
2023/03/24 01:51:03;;;;;;;2.10;1.55;;;;;;;;;;4984398;28;20131;-82
2023/03/24 01:53:30;;;;;;;1.33;1.23;;;;;;;;;;4988069;28;20026;-82
2023/03/24 01:55:56;;;;;;;1.90;1.60;;;;;;;;;;4987252;28;20023;-82
2023/03/24 01:58:26;;;;;;;1.55;1.40;;;;;;;;;;4991105;28;20088;-81
2023/03/24 02:00:52;;;;;;;3.70;1.60;;;;;;;;;;4988854;28;21192;-82
2023/03/24 02:03:21;;;;;;;3.10;1.52;;;;;;;;;;4971807;28;20133;-81
2023/03/24 02:05:50;;;;;;;1.45;1.33;;;;;;;;;;4993163;28;20026;-80
2023/03/24 02:08:29;;;;;;;3.90;2.00;;;;;;;;;;4979119;28;20064;-81
2023/03/24 02:10:55;;;;;;;1.67;1.48;;;;;;;;;;4997051;28;20034;-81
2023/03/24 02:13:22;;;;;;;1.75;1.42;;;;;;;;;;4997174;28;20088;-82
2023/03/24 02:16:06;;;;;;;2.85;1.60;;;;;;;;;;4987953;28;20041;-81
2023/03/24 02:19:04;;;;;;;1.92;1.30;;;;;;;;;;5006854;28;20032;-80
2023/03/24 02:22:12;;;;;;;3.53;1.70;;;;;;;;;;4992787;28;20033;-82
2023/03/24 02:25:12;;;;;;;2.75;1.38;;;;;;;;;;4970988;28;20038;-81
2023/03/24 02:27:37;;;;;;;1.50;1.40;;;;;;;;;;4988018;28;20073;-80
2023/03/24 02:30:15;;;;;;;6.57;1.67;;;;;;;;;;4986265;28;20987;-80
2023/03/24 02:32:52;;;;;;;1.02;0.98;;;;;;;;;;4971240;28;20036;-81
2023/03/24 02:35:49;;;;;;;2.38;1.40;;;;;;;;;;4965833;28;20065;-80
2023/03/24 02:38:41;;;;;;;1.65;1.00;;;;;;;;;;4966126;28;20054;-81
2023/03/24 02:41:25;;;;;;;1.98;1.48;;;;;;;;;;4965864;28;20034;-81
2023/03/24 02:44:24;;;;;;;1.88;1.38;;;;;;;;;;4968125;28;20042;-81
2023/03/24 02:46:57;;;;;;;1.80;1.42;;;;;;;;;;4958595;28;20107;-82
2023/03/24 02:49:28;;;;;;;1.60;1.40;;;;;;;;;;4972714;28;20063;-82
2023/03/24 02:52:09;;;;;;;2.05;1.30;;;;;;;;;;4971365;28;20046;-80
2023/03/24 02:54:34;;;;;;;2.08;1.70;;;;;;;;;;4979213;28;20070;-81
2023/03/24 02:57:08;;;;;;;1.80;1.27;;;;;;;;;;4977393;28;20073;-81
2023/03/24 03:00:07;;;;;;;2.22;1.23;;;;;;;;;;4979016;28;20030;-81
2023/03/24 03:02:38;;;;;;;2.85;1.15;;;;;;;;;;4975241;28;20050;-82
2023/03/24 03:05:22;;;;;;;1.40;1.25;;;;;;;;;;4965947;28;20026;-81
2023/03/24 03:07:49;;;;;;;1.00;0.98;;;;;;;;;;4971143;28;20030;-80
2023/03/24 03:10:21;;;;;;;1.27;1.15;;;;;;;;;;4950923;28;20030;-82
2023/03/24 03:12:51;;;;;;;1.35;1.25;;;;;;;;;;4968459;28;20666;-81
2023/03/24 03:15:33;;;;;;;2.00;1.23;;;;;;;;;;4965955;28;20108;-81
2023/03/24 03:18:21;;;;;;;2.28;1.50;;;;;;;;;;4951527;28;20153;-82
2023/03/24 03:20:51;;;;;;;1.25;1.02;;;;;;;;;;4971355;28;20050;-81
2023/03/24 03:23:29;;;;;;;1.30;1.20;;;;;;;;;;4970117;28;20105;-80
2023/03/24 03:26:13;;;;;;;1.70;1.27;;;;;;;;;;4965462;28;20102;-82
2023/03/24 03:28:48;;;;;;;1.48;1.15;;;;;;;;;;4956966;28;20042;-81
2023/03/24 03:31:20;;;;;;;2.33;1.13;;;;;;;;;;4971174;28;20038;-81
2023/03/24 03:33:52;;;;;;;1.92;1.33;;;;;;;;;;4987427;28;20030;-81
2023/03/24 03:36:52;;;;;;;1.33;1.15;;;;;;;;;;4992453;28;20136;-82
2023/03/24 03:39:26;;;;;;;1.42;1.17;;;;;;;;;;4996317;28;20067;-81
2023/03/24 03:41:52;;;;;;;2.00;1.42;;;;;;;;;;4994259;28;20034;-82
2023/03/24 03:44:18;;;;;;;1.88;1.20;;;;;;;;;;4991107;28;20034;-82
2023/03/24 03:46:43;;;;;;;1.73;1.30;;;;;;;;;;4993035;28;20041;-82
2023/03/24 03:49:09;;;;;;;1.42;1.30;;;;;;;;;;4995309;28;20017;-81
2023/03/24 03:51:35;;;;;;;1.40;1.20;;;;;;;;;;4995653;28;20029;-81
2023/03/24 03:54:04;;;;;;;1.98;1.38;;;;;;;;;;4993536;28;20041;-81
2023/03/24 03:56:33;;;;;;;1.30;1.20;;;;;;;;;;4994692;28;20037;-82
2023/03/24 03:58:59;;;;;;;1.98;1.30;;;;;;;;;;4989136;28;20035;-81
2023/03/24 04:01:28;;;;;;;2.08;1.38;;;;;;;;;;4984822;28;20042;-81
2023/03/24 04:04:09;;;;;;;1.33;1.17;;;;;;;;;;4985324;28;20025;-81
2023/03/24 04:07:06;;;;;;;2.00;1.25;;;;;;;;;;4967310;28;20030;-81
2023/03/24 04:09:48;;;;;;;1.98;1.48;;;;;;;;;;4984077;28;21031;-81
2023/03/24 04:12:30;;;;;;;1.30;1.10;;;;;;;;;;4966806;28;20038;-81
2023/03/24 04:15:14;;;;;;;1.77;1.17;;;;;;;;;;4983125;28;20132;-81
2023/03/24 04:18:10;;;;;;;1.60;1.33;;;;;;;;;;4979997;28;20042;-81
2023/03/24 04:21:32;;;;;;;7.90;1.40;;;;;;;;;;4976371;28;20030;-81
2023/03/24 04:24:16;;;;;;;1.30;1.20;;;;;;;;;;4941329;28;20046;-81
2023/03/24 04:27:25;;;;;;;1.70;1.35;;;;;;;;;;4979001;28;20034;-81
2023/03/24 04:29:53;;;;;;;1.90;1.40;;;;;;;;;;4943543;28;20070;-81
2023/03/24 04:32:41;;;;;;;1.40;1.23;;;;;;;;;;4971446;28;20408;-81
2023/03/24 04:35:11;;;;;;;2.58;1.23;;;;;;;;;;4965379;28;20197;-81
2023/03/24 04:37:37;;;;;;;2.45;1.15;;;;;;;;;;4971161;28;20062;-81
2023/03/24 04:40:07;;;;;;;3.88;1.42;;;;;;;;;;4970871;28;20116;-80
2023/03/24 04:42:47;;;;;;;3.45;1.45;;;;;;;;;;4965399;28;20045;-79
2023/03/24 04:45:14;;;;;;;3.72;1.67;;;;;;;;;;4970179;28;20137;-80
2023/03/24 04:47:45;;;;;;;2.35;1.15;;;;;;;;;;4962392;28;20035;-79
2023/03/24 04:50:12;;;;;;;1.92;1.48;;;;;;;;;;4979201;28;20508;-79
2023/03/24 04:52:41;;;;;;;3.53;1.10;;;;;;;;;;4979226;28;20085;-79
2023/03/24 04:55:39;;;;;;;2.35;1.42;;;;;;;;;;4979197;28;20050;-79
2023/03/24 04:58:04;;;;;;;1.00;0.95;;;;;;;;;;4956850;28;20532;-79
2023/03/24 05:00:30;;;;;;;1.30;1.10;;;;;;;;;;4974502;28;20059;-80
2023/03/24 05:02:56;;;;;;;4.10;1.30;;;;;;;;;;4975424;28;20037;-80
2023/03/24 05:05:21;;;;;;;2.08;1.38;;;;;;;;;;4973330;28;20026;-80
2023/03/24 05:07:48;;;;;;;2.00;1.00;;;;;;;;;;4971414;28;20408;-80
2023/03/24 05:10:14;;;;;;;2.05;1.08;;;;;;;;;;4968879;28;20262;-80
2023/03/24 05:12:39;;;;;;;3.10;1.33;;;;;;;;;;4969590;28;20117;-80
2023/03/24 05:15:05;;;;;;;1.92;1.33;;;;;;;;;;4967139;28;20107;-80
2023/03/24 05:17:31;;;;;;;1.35;1.10;;;;;;;;;;4962912;28;20068;-80
2023/03/24 05:19:56;;;;;;;2.63;1.23;;;;;;;;;;4967388;28;20168;-80
2023/03/24 05:22:21;;;;;;;1.80;1.30;;;;;;;;;;4967330;28;20030;-80
2023/03/24 05:24:47;;;;;;;2.00;1.60;;;;;;;;;;4949184;28;20031;-80
2023/03/24 05:27:12;;;;;;;2.83;1.02;;;;;;;;;;4969329;28;20054;-80
2023/03/24 05:29:37;;;;;;;1.92;1.20;;;;;;;;;;4970990;28;20038;-80
2023/03/24 05:32:03;;;;;;;2.40;1.48;;;;;;;;;;4984409;28;20045;-80
2023/03/24 05:34:28;;;;;;;1.77;1.30;;;;;;;;;;4979677;28;20037;-80
2023/03/24 05:36:54;;;;;;;1.15;1.10;;;;;;;;;;4991757;28;20031;-80
2023/03/24 05:39:19;;;;;;;1.73;1.45;;;;;;;;;;4988966;28;20050;-80
2023/03/24 05:41:45;;;;;;;3.70;1.75;;;;;;;;;;5006153;28;20674;-80
2023/03/24 05:44:10;;;;;;;5.68;1.60;;;;;;;;;;4982753;28;20037;-80
2023/03/24 05:46:36;;;;;;;2.65;1.48;;;;;;;;;;5006035;28;20358;-80
2023/03/24 05:49:02;;;;;;;2.58;1.45;;;;;;;;;;4991609;28;20042;-80
2023/03/24 05:51:27;;;;;;;1.65;1.52;;;;;;;;;;5008086;28;20034;-80
2023/03/24 05:53:53;;;;;;;3.08;1.77;;;;;;;;;;5007924;28;20039;-80
2023/03/24 05:56:18;;;;;;;4.53;1.73;;;;;;;;;;5007117;28;20045;-80
2023/03/24 05:58:43;;;;;;;2.78;1.38;;;;;;;;;;5000685;28;20026;-79
2023/03/24 06:01:10;;;;;;;2.30;1.55;;;;;;;;;;4979414;28;20787;-80
2023/03/24 06:03:37;;;;;;;2.80;1.88;;;;;;;;;;4992193;28;20835;-80
2023/03/24 06:06:05;;;;;;;2.20;1.80;;;;;;;;;;4983018;28;20030;-80
2023/03/24 06:08:32;;;;;;;1.63;1.52;;;;;;;;;;4995328;28;20106;-79
2023/03/24 06:11:02;;;;;;;2.22;1.40;;;;;;;;;;4994923;28;20049;-81
2023/03/24 06:13:31;;;;;;;2.35;1.80;;;;;;;;;;4991380;28;20098;-80
2023/03/24 06:15:58;;;;;;;2.63;1.92;;;;;;;;;;4993501;28;20113;-81
2023/03/24 06:18:25;;;;;;;1.40;1.30;;;;;;;;;;4999304;28;20623;-79
2023/03/24 06:20:55;;;;;;;4.97;1.65;;;;;;;;;;4990821;28;20057;-80
2023/03/24 06:23:24;;;;;;;2.88;1.75;;;;;;;;;;4996280;28;20045;-80
2023/03/24 06:25:57;;;;;;;2.60;1.83;;;;;;;;;;5006120;28;20021;-81
2023/03/24 06:28:25;;;;;;;3.25;2.08;;;;;;;;;;4999324;28;20066;-80
2023/03/24 06:30:50;;;;;;;2.75;2.10;;;;;;;;;;5000498;28;20026;-79
2023/03/24 06:33:16;;;;;;;3.60;1.67;;;;;;;;;;5001244;28;20029;-80
2023/03/24 06:35:42;;;;;;;2.05;1.70;;;;;;;;;;5001799;28;20358;-79
2023/03/24 06:38:07;;;;;;;3.38;1.90;;;;;;;;;;5003135;28;20065;-79
2023/03/24 06:40:33;;;;;;;3.30;1.88;;;;;;;;;;5001470;28;20052;-79
2023/03/24 06:43:00;;;;;;;2.78;1.98;;;;;;;;;;5005683;28;20073;-79
2023/03/24 06:45:47;;;;;;;2.20;1.83;;;;;;;;;;4999313;28;20022;-79
2023/03/24 06:48:14;;;;;;;1.83;1.67;;;;;;;;;;4997804;28;20460;-79
2023/03/24 06:50:40;;;;;;;2.13;1.80;;;;;;;;;;4992677;28;20026;-80
2023/03/24 06:53:05;;;;;;;1.75;1.30;;;;;;;;;;4997898;28;20033;-79
2023/03/24 06:55:31;;;;;;;2.72;1.88;;;;;;;;;;4969086;28;20018;-80
2023/03/24 06:57:56;;;;;;;2.05;1.58;;;;;;;;;;4998044;28;20026;-80
2023/03/24 07:00:22;;;;;;;4.70;1.88;;;;;;;;;;4997122;28;20034;-79
2023/03/24 07:02:47;;;;;;;2.20;1.88;;;;;;;;;;4996837;28;20026;-80
2023/03/24 07:05:13;;;;;;;2.30;1.88;;;;;;;;;;4989888;28;20030;-80
2023/03/24 07:07:40;;;;;;;3.35;1.75;;;;;;;;;;4995825;28;20018;-79
2023/03/24 07:10:06;;;;;;;3.08;1.65;;;;;;;;;;4995025;28;20435;-80
2023/03/24 07:12:32;;;;;;;2.20;1.90;;;;;;;;;;4995512;28;20524;-79
2023/03/24 07:14:57;;;;;;;5.50;1.77;;;;;;;;;;5008055;28;20109;-78
2023/03/24 07:17:23;;;;;;;2.90;1.70;;;;;;;;;;5003504;28;20140;-79
2023/03/24 07:19:48;;;;;;;1.85;1.50;;;;;;;;;;4999131;28;20042;-79
2023/03/24 07:22:14;;;;;;;1.73;1.35;;;;;;;;;;4994975;28;20022;-79
2023/03/24 07:24:39;;;;;;;2.15;1.70;;;;;;;;;;4993381;28;20030;-79
2023/03/24 07:27:11;;;;;;;1.80;1.50;;;;;;;;;;4994030;28;20477;-79
2023/03/24 07:29:38;;;;;;;1.63;1.52;;;;;;;;;;4977999;28;21041;-79
2023/03/24 07:32:06;;;;;;;3.05;1.73;;;;;;;;;;5032563;22;20049;-85
2023/03/24 07:34:33;;;;;;;3.92;1.95;;;;;;;;;;5023239;28;20024;-86
2023/03/24 07:36:58;;;;;;;3.42;1.30;;;;;;;;;;5060381;28;20025;-85
2023/03/24 07:39:24;;;;;;;3.00;1.63;;;;;;;;;;5045923;28;20014;-84
2023/03/24 07:41:49;;;;;;;2.22;1.70;;;;;;;;;;5037047;28;20025;-84
2023/03/24 07:44:14;;;;;;;5.20;1.60;;;;;;;;;;5067913;28;20109;-84
2023/03/24 07:46:40;;;;;;;2.38;1.77;;;;;;;;;;5061175;28;20021;-85
2023/03/24 07:49:05;;;;;;;2.67;1.73;;;;;;;;;;5066391;28;20070;-84
2023/03/24 07:51:31;;;;;;;2.72;1.48;;;;;;;;;;5056628;28;20055;-83
2023/03/24 07:53:56;;;;;;;2.33;1.88;;;;;;;;;;5039581;28;20088;-84
2023/03/24 07:56:22;;;;;;;2.15;1.58;;;;;;;;;;5056827;28;20060;-83
2023/03/24 07:58:48;;;;;;;2.90;1.98;;;;;;;;;;5037293;28;20025;-83
2023/03/24 08:01:13;;;;;;;1.75;1.60;;;;;;;;;;5051851;28;20091;-83
2023/03/24 08:03:39;;;;;;;2.83;2.08;;;;;;;;;;5034758;28;20579;-83
2023/03/24 08:06:06;;;;;;;2.83;1.63;;;;;;;;;;5054794;28;20028;-83
2023/03/24 08:08:32;;;;;;;1.27;1.15;;;;;;;;;;5037088;28;20025;-83
2023/03/24 08:10:57;;;;;;;2.67;1.88;;;;;;;;;;5053858;28;20445;-83
2023/03/24 08:13:23;;;;;;;3.65;1.60;;;;;;;;;;5054512;28;20035;-83
2023/03/24 08:15:50;;;;;;;4.32;1.85;;;;;;;;;;5055278;28;20070;-83
2023/03/24 08:18:15;;;;;;;2.13;1.83;;;;;;;;;;5038586;28;20025;-83
2023/03/24 08:20:41;;;;;;;4.30;1.60;;;;;;;;;;5045460;28;20039;-84
2023/03/24 08:23:43;;;;;;;2.30;1.73;;;;;;;;;;5037404;28;20033;-82
2023/03/24 08:26:12;;;;;;;;;;;;;;;;;;5029893;28;20021;-82
2023/03/24 08:28:37;;;;;;;2.60;1.55;;;;;;;;;;5037032;28;19913;-85
2023/03/24 08:31:03;;;;;;;6.15;1.90;;;;;;;;;;5030284;28;20052;-85
2023/03/24 08:33:29;;;;;;;3.75;1.73;;;;;;;;;;5054753;28;20086;-85
2023/03/24 08:35:56;;;;;;;6.72;2.00;;;;;;;;;;5054243;28;20204;-83
2023/03/24 08:38:29;;;;;;;2.28;1.90;;;;;;;;;;5056640;28;20025;-83
2023/03/24 08:40:54;;;;;;;2.45;1.70;;;;;;;;;;5056151;28;20403;-83
2023/03/24 08:43:22;;;;;;;3.35;1.83;;;;;;;;;;5062122;28;20055;-83
2023/03/24 08:45:47;;;;;;;3.20;1.70;;;;;;;;;;5044091;28;20040;-83
2023/03/24 08:48:12;;;;;;;1.90;1.60;;;;;;;;;;5037161;28;20029;-83
2023/03/24 08:50:40;;;;;;;3.20;1.80;;;;;;;;;;5053603;28;20032;-83
2023/03/24 08:53:07;;;;;;;1.80;1.60;;;;;;;;;;5049690;28;20056;-83
2023/03/24 08:55:32;;;;;;;2.65;1.85;;;;;;;;;;5055434;28;20021;-83
2023/03/24 08:57:58;;;;;;;2.25;1.73;;;;;;;;;;5036796;28;20498;-83
2023/03/24 09:00:24;;;;;;;1.98;1.40;;;;;;;;;;5032365;28;20442;-83
2023/03/24 09:02:52;;;;;;;3.28;1.40;;;;;;;;;;5055797;28;20530;-83
2023/03/24 09:05:20;;;;;;;1.52;1.42;;;;;;;;;;5050182;28;20032;-83
2023/03/24 09:07:47;;;;;;;4.93;1.83;;;;;;;;;;5035134;28;20033;-84
2023/03/24 09:10:13;;;;;;;1.42;1.33;;;;;;;;;;5045133;28;20089;-82
2023/03/24 09:12:41;;;;;;;2.20;1.60;;;;;;;;;;5039306;28;20034;-83
2023/03/24 09:15:08;;;;;;;2.65;1.80;;;;;;;;;;5049306;28;20021;-82
2023/03/24 09:17:34;;;;;;;1.48;1.30;;;;;;;;;;5053841;28;20120;-81
2023/03/24 09:20:00;;;;;;;1.40;1.30;;;;;;;;;;5053074;28;20030;-81
2023/03/24 09:22:27;;;;;;;2.35;1.75;;;;;;;;;;5049234;28;20044;-81
2023/03/24 09:24:52;;;;;;;1.48;1.38;;;;;;;;;;5052610;28;20443;-83
2023/03/24 09:27:17;;;;;;;2.40;1.30;;;;;;;;;;5051657;28;20438;-82
2023/03/24 09:29:43;;;;;;;1.27;1.17;;;;;;;;;;5049815;28;20057;-81
2023/03/24 09:32:09;;;;;;;2.20;1.38;;;;;;;;;;5049357;28;20034;-82
2023/03/24 09:34:37;;;;;;;1.88;1.40;;;;;;;;;;5051763;28;20056;-82
2023/03/24 09:37:03;;;;;;;2.22;1.33;;;;;;;;;;5063688;28;20033;-81
2023/03/24 09:39:28;;;;;;;2.33;1.45;;;;;;;;;;5066478;28;20025;-80
2023/03/24 09:41:54;;;;;;;1.50;1.40;;;;;;;;;;5067094;28;20021;-81
2023/03/24 09:44:29;;;;;;;1.10;1.10;;;;;;;;;;5070374;28;20028;-81
2023/03/24 09:47:22;;;;;;;3.10;1.40;;;;;;;;;;5073943;28;20025;-81
2023/03/24 09:49:49;;;;;;;1.33;1.23;;;;;;;;;;5056291;28;20033;-81
2023/03/24 09:52:20;;;;;;;2.20;1.10;;;;;;;;;;5073434;28;20078;-81
2023/03/24 09:54:53;;;;;;;1.30;1.20;;;;;;;;;;5072793;28;20068;-81
2023/03/24 09:57:23;;;;;;;1.27;1.17;;;;;;;;;;5074496;28;20009;-81
2023/03/24 09:59:48;;;;;;;1.80;1.42;;;;;;;;;;5047543;28;20037;-82
2023/03/24 10:02:19;;;;;;;2.90;1.45;;;;;;;;;;5059023;28;20061;-82
2023/03/24 10:04:45;;;;;;;1.50;1.27;;;;;;;;;;5057276;28;20017;-82
2023/03/24 10:07:29;;;;;;;2.30;1.30;;;;;;;;;;5056555;28;20063;-82
2023/03/24 10:09:58;;;;;;;1.42;1.30;;;;;;;;;;5054027;28;20025;-82
2023/03/24 10:12:35;;;;;;;1.38;1.27;;;;;;;;;;5057611;28;20107;-81
2023/03/24 10:15:46;;;;;;;1.40;1.30;;;;;;;;;;5059409;28;20056;-82
2023/03/24 10:18:11;;;;;;;1.15;1.05;;;;;;;;;;4986486;28;20033;-81
2023/03/24 10:20:59;;;;;;;1.50;1.40;;;;;;;;;;4966176;28;20027;-82
2023/03/24 10:23:47;;;;;;;5.18;1.00;;;;;;;;;;5006059;28;20047;-82
2023/03/24 10:26:35;;;;;;;1.23;1.02;;;;;;;;;;5032083;28;20072;-81
2023/03/24 10:29:04;;;;;;;1.20;1.05;;;;;;;;;;5047963;28;20384;-82
2023/03/24 10:31:46;;;;;;;1.20;1.10;;;;;;;;;;5047606;28;20102;-81
2023/03/24 10:34:11;;;;;;;0.95;0.95;;;;;;;;;;5049479;28;20459;-82
2023/03/24 10:36:38;;;;;;;1.67;1.20;;;;;;;;;;5034657;28;20500;-82
2023/03/24 10:39:04;;;;;;;1.20;1.10;;;;;;;;;;5035577;28;20103;-82
2023/03/24 10:41:32;;;;;;;0.82;0.82;;;;;;;;;;5048351;28;20040;-82
2023/03/24 10:43:59;;;;;;;1.00;0.93;;;;;;;;;;5047760;28;20037;-82
2023/03/24 10:46:28;;;;;;;2.15;1.05;;;;;;;;;;5035131;28;20095;-82
2023/03/24 10:49:09;;;;;;;0.85;0.77;;;;;;;;;;5062158;28;20118;-82
2023/03/24 10:51:35;;;;;;;0.88;0.88;;;;;;;;;;5045847;28;20048;-82
2023/03/24 10:54:23;;;;;;;0.60;0.60;;;;;;;;;;5044202;28;20684;-82
2023/03/24 10:57:04;;;;;;;2.63;0.90;;;;;;;;;;5025281;28;20033;-81
2023/03/24 10:59:47;;;;;;;1.98;0.85;;;;;;;;;;5046477;28;20130;-81
2023/03/24 11:02:19;;;;;;;1.10;0.77;;;;;;;;;;5064637;28;20059;-82
2023/03/24 11:04:57;;;;;;;1.20;0.90;;;;;;;;;;5066041;28;20025;-81
2023/03/24 11:07:34;;;;;;;1.00;0.95;;;;;;;;;;5046579;28;20037;-82
2023/03/24 11:10:03;;;;;;;0.82;0.68;;;;;;;;;;5065943;28;20029;-82
2023/03/24 11:12:30;;;;;;;1.10;0.95;;;;;;;;;;5066618;28;20032;-82
2023/03/24 11:15:02;;;;;;;0.60;0.60;;;;;;;;;;5057246;28;20025;-84
2023/03/24 11:17:27;;;;;;;2.65;1.05;;;;;;;;;;5040748;28;20032;-82
2023/03/24 11:19:56;;;;;;;0.65;0.65;;;;;;;;;;5043108;28;20091;-82
2023/03/24 11:22:22;;;;;;;4.18;0.90;;;;;;;;;;5040941;28;20030;-82
2023/03/24 11:24:54;;;;;;;0.90;0.90;;;;;;;;;;5040649;28;20029;-82
2023/03/24 11:27:20;;;;;;;1.20;0.88;;;;;;;;;;5032479;28;20036;-81
2023/03/24 11:29:55;;;;;;;1.60;0.75;;;;;;;;;;5042856;28;20024;-81
2023/03/24 11:32:28;;;;;;;0.80;0.80;;;;;;;;;;5073477;28;20083;-80
2023/03/24 11:35:04;;;;;;;0.93;0.70;;;;;;;;;;5052141;28;20029;-82
2023/03/24 11:37:33;;;;;;;0.77;0.70;;;;;;;;;;5068459;28;20087;-81
2023/03/24 11:40:11;;;;;;;0.88;0.85;;;;;;;;;;5056148;28;20025;-81
2023/03/24 11:42:59;;;;;;;2.10;0.88;;;;;;;;;;5053236;28;20029;-82
2023/03/24 11:46:03;;;;;;;1.08;0.60;;;;;;;;;;5050820;28;20097;-82
2023/03/24 11:48:39;;;;;;;0.63;0.60;;;;;;;;;;5052888;28;20036;-81
2023/03/24 11:51:07;;;;;;;1.17;0.90;;;;;;;;;;5060852;28;20818;-84
2023/03/24 11:53:46;;;;;;;0.77;0.77;;;;;;;;;;5050122;28;20147;-82
2023/03/24 11:56:26;;;;;;;0.77;0.77;;;;;;;;;;5048955;28;20035;-82
2023/03/24 11:59:10;;;;;;;1.77;1.35;;;;;;;;;;5042662;28;20085;-82
2023/03/24 12:01:40;;;;;;;1.15;0.80;;;;;;;;;;5042473;28;20029;-83
2023/03/24 12:04:33;;;;;;;1.67;0.85;;;;;;;;;;5026052;28;20029;-82
2023/03/24 12:07:36;;;;;;;0.75;0.73;;;;;;;;;;5029091;28;20034;-81
2023/03/24 12:10:20;;;;;;;0.98;0.93;;;;;;;;;;5035265;28;20109;-81
2023/03/24 12:13:20;;;;;;;0.80;0.80;;;;;;;;;;5044127;28;20055;-83
2023/03/24 12:16:10;;;;;;;0.60;0.60;;;;;;;;;;5057515;28;20033;-81
2023/03/24 12:18:49;;;;;;;0.60;0.60;;;;;;;;;;5056569;28;20100;-83
2023/03/24 12:21:42;;;;;;;0.60;0.60;;;;;;;;;;5058085;28;20025;-82
2023/03/24 12:24:39;;;;;;;0.60;0.60;;;;;;;;;;5055270;28;20475;-83
2023/03/24 12:27:17;;;;;;;0.75;0.75;;;;;;;;;;5005868;28;20041;-83
2023/03/24 12:30:06;;;;;;;0.75;0.75;;;;;;;;;;5023440;28;20071;-82
2023/03/24 12:32:58;;;;;;;0.70;0.70;;;;;;;;;;5037756;28;20052;-83
2023/03/24 12:35:48;;;;;;;0.63;0.63;;;;;;;;;;5039715;28;20072;-84
2023/03/24 12:38:41;;;;;;;3.25;0.68;;;;;;;;;;5026331;28;20094;-82
2023/03/24 12:41:34;;;;;;;1.75;0.85;;;;;;;;;;5037399;28;20025;-82
2023/03/24 12:44:41;;;;;;;0.40;0.40;;;;;;;;;;5068001;28;20036;-82
2023/03/24 12:47:25;;;;;;;0.60;0.60;;;;;;;;;;4978687;28;20031;-82
2023/03/24 12:50:09;;;;;;;1.15;0.52;;;;;;;;;;4975859;28;20038;-83
2023/03/24 12:52:43;;;;;;;0.55;0.55;;;;;;;;;;5034364;28;20033;-82
2023/03/24 12:55:11;;;;;;;0.70;0.60;;;;;;;;;;5058047;28;20048;-82
2023/03/24 12:57:44;;;;;;;0.60;0.25;;;;;;;;;;5053061;28;20017;-82
2023/03/24 13:00:31;;;;;;;0.40;0.40;;;;;;;;;;5040897;28;20562;-84
2023/03/24 13:03:13;;;;;;;0.40;0.40;;;;;;;;;;5057581;28;20036;-83
2023/03/24 13:05:43;;;;;;;;;;;;;;;;;;5029555;28;20040;-82
2023/03/24 13:08:15;;;;;;;0.77;0.50;;;;;;;;;;5029665;28;19920;-83
2023/03/24 13:10:42;;;;;;;0.95;0.28;;;;;;;;;;5018770;28;20502;-83
2023/03/24 13:13:21;;;;;;;0.98;0.45;;;;;;;;;;5031746;28;20044;-81
2023/03/24 13:15:57;;;;;;;0.75;0.30;;;;;;;;;;5036634;28;20105;-83
2023/03/24 13:18:31;;;;;;;0.20;0.20;;;;;;;;;;5052080;28;20036;-83
2023/03/24 13:21:14;;;;;;;0.20;0.20;;;;;;;;;;5054937;28;20079;-82
2023/03/24 13:24:01;;;;;;;5.18;0.30;;;;;;;;;;5033180;28;20028;-84
2023/03/24 13:26:56;;;;;;;1.63;0.80;;;;;;;;;;5021018;28;20119;-85
2023/03/24 13:29:40;;;;;;;1.20;0.50;;;;;;;;;;5018814;28;20037;-83
2023/03/24 13:32:23;;;;;;;4.50;0.80;;;;;;;;;;5039457;28;20055;-83
2023/03/24 13:34:55;;;;;;;1.27;0.65;;;;;;;;;;5039674;28;20466;-82
2023/03/24 13:37:31;;;;;;;1.33;1.02;;;;;;;;;;5019015;28;20025;-81
2023/03/24 13:40:00;;;;;;;1.27;0.60;;;;;;;;;;5024313;28;20036;-82
2023/03/24 13:42:35;;;;;;;0.32;0.32;;;;;;;;;;5024371;28;20029;-82
2023/03/24 13:45:03;;;;;;;0.47;0.47;;;;;;;;;;5047398;28;20038;-82
2023/03/24 13:48:06;;;;;;;1.42;0.80;;;;;;;;;;5043763;28;20029;-83
2023/03/24 13:50:32;;;;;;;;;;;;;;;;;;5047968;28;20033;-79
2023/03/24 13:53:05;;;;;;;1.50;0.40;;;;;;;;;;5042884;28;19916;-80
2023/03/24 13:55:37;;;;;;;2.33;0.63;;;;;;;;;;5039737;28;20033;-84
2023/03/24 13:58:16;;;;;;;0.77;0.45;;;;;;;;;;5036263;28;20036;-83
2023/03/24 14:01:11;;;;;;;1.80;0.60;;;;;;;;;;5032817;28;20044;-83
2023/03/24 14:03:45;;;;;;;0.57;0.57;;;;;;;;;;5032953;28;20043;-82
2023/03/24 14:06:16;;;;;;;0.40;0.40;;;;;;;;;;5029774;28;20104;-83
2023/03/24 14:09:05;;;;;;;42.13;2.78;;;;;;;;;;5039682;28;20037;-83
2023/03/24 14:11:30;;;;;;;2.63;0.90;;;;;;;;;;5023284;28;21002;-85
2023/03/24 14:14:15;;;;;;;0.95;0.65;;;;;;;;;;5048722;28;20044;-83
2023/03/24 14:16:51;;;;;;;1.50;0.77;;;;;;;;;;5036774;28;20064;-83
2023/03/24 14:19:26;;;;;;;0.55;0.52;;;;;;;;;;5028768;28;20036;-82
2023/03/24 14:21:56;;;;;;;0.47;0.47;;;;;;;;;;5036861;28;20034;-83
2023/03/24 14:24:28;;;;;;;0.20;0.20;;;;;;;;;;5035383;28;20033;-81
2023/03/24 14:26:54;;;;;;;0.90;0.90;;;;;;;;;;5018076;28;20494;-85
2023/03/24 14:29:51;;;;;;;1.20;0.77;;;;;;;;;;5030294;28;20032;-82
2023/03/24 14:32:21;;;;;;;1.83;0.60;;;;;;;;;;5031643;28;20725;-83
2023/03/24 14:34:58;;;;;;;0.77;0.65;;;;;;;;;;5031524;28;20040;-83
2023/03/24 14:37:26;;;;;;;2.70;1.27;;;;;;;;;;5034615;28;20476;-83
2023/03/24 14:39:56;;;;;;;0.50;0.40;;;;;;;;;;5018723;28;20043;-83
2023/03/24 14:42:33;;;;;;;0.82;0.65;;;;;;;;;;5034743;28;20033;-82
2023/03/24 14:45:00;;;;;;;1.60;0.43;;;;;;;;;;5033235;28;20514;-82
2023/03/24 14:47:31;;;;;;;1.65;0.52;;;;;;;;;;5019202;28;20051;-83
2023/03/24 14:49:59;;;;;;;3.43;0.80;;;;;;;;;;5027622;28;20032;-86
2023/03/24 14:52:41;;;;;;;0.38;0.38;;;;;;;;;;5035143;28;20053;-84
2023/03/24 14:55:15;;;;;;;0.30;0.30;;;;;;;;;;5034037;28;20422;-84
2023/03/24 14:57:43;;;;;;;0.85;0.63;;;;;;;;;;5042004;28;20030;-83
2023/03/24 15:00:17;;;;;;;1.33;0.70;;;;;;;;;;5049136;28;20478;-84
2023/03/24 15:02:53;;;;;;;2.92;0.90;;;;;;;;;;5048175;28;20040;-83
2023/03/24 15:05:30;;;;;;;0.50;0.38;;;;;;;;;;5043319;28;20036;-84
2023/03/24 15:08:20;;;;;;;1.15;0.50;;;;;;;;;;5045780;28;20079;-84
2023/03/24 15:10:55;;;;;;;0.50;0.50;;;;;;;;;;5026157;28;20085;-85
2023/03/24 15:13:47;;;;;;;1.73;0.93;;;;;;;;;;5032200;28;20025;-84
2023/03/24 15:16:12;;;;;;;2.30;0.70;;;;;;;;;;5026178;28;20052;-84
2023/03/24 15:18:46;;;;;;;0.47;0.47;;;;;;;;;;5029252;28;20106;-84
2023/03/24 15:21:34;;;;;;;2.78;0.77;;;;;;;;;;5040635;28;20495;-83